Hauptseite
METAR-TAF:

METAR-TAF

Flughäfen :

Flughafen London Heathrow

London-Heathrow, England

Breite: 51-29N, Länge: 000-27W, Höhe: 24 m

Beobachtung

Neuester Wetterbericht von vor 24 Minuten, um 20:50 UTC
Wind 3 kt aus unterschiedlichen Richtungen
Temperatur 20°C
Luftfeuchtigkeit 46%
Luftdruck 1026 hPa
Sichtweite 10 km oder mehr

METAR: EGLL 232050Z AUTO VRB03KT 9999 NCD 20/08 Q1026 NOSIG

Zeit: 22:14 (21:14 UTC)

Prognose

Neuester Wetterbericht von vor 4 Stunden und 24 Minuten, um 16:50 UTC
Gültige Prognose vom 23 um 18 UTC bis 24 um 24 UTC
Wind 6 kt aus Nord
Sichtweite 10 km oder mehr
keine Wolken unter 1500 m und keine Kumulonimbus oder Gewitterwolken

TAF: EGLL 231650Z 2318/2424 35006KT CAVOK

Wetterbeobachtungen und Prognosen von mehr als 4000 Flughäfen (METAR und TAF Bericht).

Die verfügbaren Stationen werden durch gelbe und rote Markierungen auf der Karte dargestellt.

Führen Sie die Maus auf sie, um den Namen der Station zu sehen.

Darauf klicken, um die Beobachtung von Wetterbeobachtungen und Prognosen zu sehen.

Um die Karte zu ändern : klicken Sie auf den grünen Tasten mit einem schwarzen Kreuz Zum Vergrößern, auf den grünen Button mit einem Gedankenstrich zu verkleinern, oder auf die grünen Pfeile für benachbarte Karten.


METAR-TAF: